sensor_id;sensor_type;location;lat;lon;timestamp;pressure;altitude;pressure_sealevel;temperature;humidity
43281;BME280;62175;49.416;8.690;2023-11-19T00:02:07;100450.06;;;12.70;63.16
43281;BME280;62175;49.416;8.690;2023-11-19T00:04:36;100438.93;;;12.46;63.55
43281;BME280;62175;49.416;8.690;2023-11-19T00:07:03;100444.48;;;12.46;63.09
43281;BME280;62175;49.416;8.690;2023-11-19T00:09:31;100444.21;;;12.29;63.16
43281;BME280;62175;49.416;8.690;2023-11-19T00:11:58;100448.87;;;12.25;63.39
43281;BME280;62175;49.416;8.690;2023-11-19T00:14:25;100449.34;;;12.52;63.65
43281;BME280;62175;49.416;8.690;2023-11-19T00:16:52;100461.74;;;12.49;63.11
43281;BME280;62175;49.416;8.690;2023-11-19T00:19:19;100460.46;;;12.32;63.65
43281;BME280;62175;49.416;8.690;2023-11-19T00:21:46;100444.65;;;12.23;63.61
43281;BME280;62175;49.416;8.690;2023-11-19T00:24:14;100442.23;;;12.24;62.64
43281;BME280;62175;49.416;8.690;2023-11-19T00:26:41;100444.58;;;12.44;63.97
43281;BME280;62175;49.416;8.690;2023-11-19T00:29:08;100443.03;;;12.52;64.08
43281;BME280;62175;49.416;8.690;2023-11-19T00:31:35;100444.18;;;12.61;64.39
43281;BME280;62175;49.416;8.690;2023-11-19T00:34:03;100429.68;;;12.51;64.21
43281;BME280;62175;49.416;8.690;2023-11-19T00:36:30;100410.18;;;12.57;64.35
43281;BME280;62175;49.416;8.690;2023-11-19T00:38:57;100413.71;;;12.34;65.13
43281;BME280;62175;49.416;8.690;2023-11-19T00:41:24;100415.36;;;12.31;64.97
43281;BME280;62175;49.416;8.690;2023-11-19T00:43:51;100408.56;;;12.66;64.70
43281;BME280;62175;49.416;8.690;2023-11-19T00:46:19;100415.76;;;12.38;63.93
43281;BME280;62175;49.416;8.690;2023-11-19T00:48:46;100408.48;;;12.47;64.60
43281;BME280;62175;49.416;8.690;2023-11-19T00:51:13;100396.42;;;12.49;64.34
43281;BME280;62175;49.416;8.690;2023-11-19T00:53:40;100406.38;;;12.49;64.50
43281;BME280;62175;49.416;8.690;2023-11-19T00:56:08;100413.18;;;12.69;64.35
43281;BME280;62175;49.416;8.690;2023-11-19T00:58:34;100414.96;;;12.22;63.28
43281;BME280;62175;49.416;8.690;2023-11-19T01:01:02;100420.19;;;12.30;64.55
43281;BME280;62175;49.416;8.690;2023-11-19T01:03:29;100424.29;;;12.43;64.94
43281;BME280;62175;49.416;8.690;2023-11-19T01:05:56;100415.70;;;12.37;64.98
43281;BME280;62175;49.416;8.690;2023-11-19T01:08:23;100420.35;;;12.63;64.60
43281;BME280;62175;49.416;8.690;2023-11-19T01:10:50;100421.38;;;12.33;65.56
43281;BME280;62175;49.416;8.690;2023-11-19T01:13:18;100428.25;;;12.66;65.17
43281;BME280;62175;49.416;8.690;2023-11-19T01:15:45;100420.67;;;12.45;64.86
43281;BME280;62175;49.416;8.690;2023-11-19T01:18:12;100414.71;;;12.76;65.41
43281;BME280;62175;49.416;8.690;2023-11-19T01:20:42;100408.16;;;12.71;65.04
43281;BME280;62175;49.416;8.690;2023-11-19T01:23:09;100420.17;;;12.89;63.82
43281;BME280;62175;49.416;8.690;2023-11-19T01:25:36;100418.05;;;12.81;65.01
43281;BME280;62175;49.416;8.690;2023-11-19T01:28:03;100408.90;;;12.84;65.11
43281;BME280;62175;49.416;8.690;2023-11-19T01:30:31;100414.47;;;12.77;65.45
43281;BME280;62175;49.416;8.690;2023-11-19T01:32:58;100412.26;;;13.04;64.86
43281;BME280;62175;49.416;8.690;2023-11-19T01:35:25;100416.06;;;12.53;65.50
43281;BME280;62175;49.416;8.690;2023-11-19T01:37:52;100419.03;;;12.85;65.52
43281;BME280;62175;49.416;8.690;2023-11-19T01:40:20;100409.81;;;12.71;65.27
43281;BME280;62175;49.416;8.690;2023-11-19T01:42:47;100411.32;;;12.27;65.06
43281;BME280;62175;49.416;8.690;2023-11-19T01:45:27;100415.87;;;12.82;65.25
43281;BME280;62175;49.416;8.690;2023-11-19T01:47:55;100424.06;;;12.55;65.32
43281;BME280;62175;49.416;8.690;2023-11-19T01:50:22;100421.75;;;12.73;64.81
43281;BME280;62175;49.416;8.690;2023-11-19T01:52:51;100421.10;;;12.61;65.19
43281;BME280;62175;49.416;8.690;2023-11-19T01:55:20;100411.47;;;13.01;64.86
43281;BME280;62175;49.416;8.690;2023-11-19T01:57:48;100409.93;;;12.68;65.94
43281;BME280;62175;49.416;8.690;2023-11-19T02:00:16;100404.75;;;12.75;64.76
43281;BME280;62175;49.416;8.690;2023-11-19T02:02:46;100392.07;;;12.68;65.20
43281;BME280;62175;49.416;8.690;2023-11-19T02:05:13;100383.02;;;12.46;65.66
43281;BME280;62175;49.416;8.690;2023-11-19T02:07:40;100386.90;;;12.55;65.40
43281;BME280;62175;49.416;8.690;2023-11-19T02:10:08;100386.96;;;12.71;65.85
43281;BME280;62175;49.416;8.690;2023-11-19T02:12:35;100381.29;;;12.40;65.37
43281;BME280;62175;49.416;8.690;2023-11-19T02:15:03;100364.94;;;12.61;65.86
43281;BME280;62175;49.416;8.690;2023-11-19T02:17:31;100360.64;;;12.44;65.09
43281;BME280;62175;49.416;8.690;2023-11-19T02:19:59;100363.11;;;12.42;65.35
43281;BME280;62175;49.416;8.690;2023-11-19T02:22:26;100361.15;;;12.64;64.94
43281;BME280;62175;49.416;8.690;2023-11-19T02:24:59;100366.13;;;12.40;66.04
43281;BME280;62175;49.416;8.690;2023-11-19T02:27:36;100356.74;;;12.58;66.16
43281;BME280;62175;49.416;8.690;2023-11-19T02:30:03;100354.00;;;12.21;66.01
43281;BME280;62175;49.416;8.690;2023-11-19T02:32:31;100354.11;;;12.60;65.53
43281;BME280;62175;49.416;8.690;2023-11-19T02:34:58;100346.41;;;12.41;66.26
43281;BME280;62175;49.416;8.690;2023-11-19T02:37:25;100346.46;;;13.05;65.24
43281;BME280;62175;49.416;8.690;2023-11-19T02:39:52;100345.19;;;12.44;66.37
43281;BME280;62175;49.416;8.690;2023-11-19T02:42:20;100342.84;;;12.74;66.25
43281;BME280;62175;49.416;8.690;2023-11-19T02:44:47;100337.63;;;12.97;65.88
43281;BME280;62175;49.416;8.690;2023-11-19T02:47:14;100338.27;;;12.72;66.29
43281;BME280;62175;49.416;8.690;2023-11-19T02:49:41;100338.50;;;12.52;66.25
43281;BME280;62175;49.416;8.690;2023-11-19T02:52:08;100340.85;;;12.51;66.37
43281;BME280;62175;49.416;8.690;2023-11-19T02:54:36;100339.95;;;12.35;66.89
43281;BME280;62175;49.416;8.690;2023-11-19T02:57:03;100333.75;;;12.56;66.83
43281;BME280;62175;49.416;8.690;2023-11-19T02:59:31;100334.62;;;12.27;67.45
43281;BME280;62175;49.416;8.690;2023-11-19T03:01:58;100335.94;;;12.41;66.77
43281;BME280;62175;49.416;8.690;2023-11-19T03:04:25;100330.17;;;12.64;66.73
43281;BME280;62175;49.416;8.690;2023-11-19T03:06:52;100324.28;;;12.87;66.46
43281;BME280;62175;49.416;8.690;2023-11-19T03:09:20;100313.52;;;12.27;66.90
43281;BME280;62175;49.416;8.690;2023-11-19T03:11:47;100308.60;;;12.19;68.16
43281;BME280;62175;49.416;8.690;2023-11-19T03:14:14;100303.87;;;12.51;67.52
43281;BME280;62175;49.416;8.690;2023-11-19T03:16:45;100295.31;;;12.72;67.07
43281;BME280;62175;49.416;8.690;2023-11-19T03:19:12;100302.90;;;12.74;67.06
43281;BME280;62175;49.416;8.690;2023-11-19T03:21:39;100302.84;;;12.44;67.88
43281;BME280;62175;49.416;8.690;2023-11-19T03:24:06;100295.73;;;12.71;67.05
43281;BME280;62175;49.416;8.690;2023-11-19T03:26:33;100295.03;;;12.44;67.86
43281;BME280;62175;49.416;8.690;2023-11-19T03:29:00;100292.56;;;12.76;67.30
43281;BME280;62175;49.416;8.690;2023-11-19T03:31:28;100292.46;;;12.14;67.50
43281;BME280;62175;49.416;8.690;2023-11-19T03:33:55;100292.89;;;12.10;68.50
43281;BME280;62175;49.416;8.690;2023-11-19T03:36:22;100284.65;;;12.33;68.80
43281;BME280;62175;49.416;8.690;2023-11-19T03:38:49;100282.44;;;12.76;67.25
43281;BME280;62175;49.416;8.690;2023-11-19T03:41:16;100283.33;;;12.34;68.20
43281;BME280;62175;49.416;8.690;2023-11-19T03:43:44;100280.09;;;12.14;68.17
43281;BME280;62175;49.416;8.690;2023-11-19T03:46:19;100276.23;;;12.68;68.04
43281;BME280;62175;49.416;8.690;2023-11-19T03:48:46;100276.42;;;12.63;67.53
43281;BME280;62175;49.416;8.690;2023-11-19T03:51:13;100277.77;;;12.69;67.72
43281;BME280;62175;49.416;8.690;2023-11-19T03:53:41;100278.60;;;12.74;67.35
43281;BME280;62175;49.416;8.690;2023-11-19T03:56:08;100279.13;;;12.31;68.14
43281;BME280;62175;49.416;8.690;2023-11-19T03:58:35;100275.61;;;12.62;67.66
43281;BME280;62175;49.416;8.690;2023-11-19T04:01:03;100272.29;;;12.94;67.20
43281;BME280;62175;49.416;8.690;2023-11-19T04:03:30;100279.15;;;12.58;67.13
43281;BME280;62175;49.416;8.690;2023-11-19T04:05:57;100289.55;;;12.55;67.86
43281;BME280;62175;49.416;8.690;2023-11-19T04:08:24;100282.51;;;12.87;67.12
43281;BME280;62175;49.416;8.690;2023-11-19T04:10:51;100275.87;;;12.41;68.44
43281;BME280;62175;49.416;8.690;2023-11-19T04:13:19;100272.94;;;12.32;69.23
43281;BME280;62175;49.416;8.690;2023-11-19T04:15:46;100268.41;;;13.07;67.98
43281;BME280;62175;49.416;8.690;2023-11-19T04:18:13;100265.41;;;12.62;68.00
43281;BME280;62175;49.416;8.690;2023-11-19T04:20:40;100276.08;;;12.94;66.83
43281;BME280;62175;49.416;8.690;2023-11-19T04:23:07;100271.64;;;13.08;67.00
43281;BME280;62175;49.416;8.690;2023-11-19T04:25:35;100275.85;;;13.30;67.20
43281;BME280;62175;49.416;8.690;2023-11-19T04:28:02;100270.40;;;12.87;66.91
43281;BME280;62175;49.416;8.690;2023-11-19T04:30:29;100276.82;;;12.98;67.01
43281;BME280;62175;49.416;8.690;2023-11-19T04:32:56;100281.90;;;12.79;67.71
43281;BME280;62175;49.416;8.690;2023-11-19T04:35:23;100283.29;;;12.85;68.33
43281;BME280;62175;49.416;8.690;2023-11-19T04:37:50;100280.83;;;12.63;68.35
43281;BME280;62175;49.416;8.690;2023-11-19T04:40:17;100279.77;;;13.07;67.67
43281;BME280;62175;49.416;8.690;2023-11-19T04:42:45;100269.64;;;13.37;67.46
43281;BME280;62175;49.416;8.690;2023-11-19T04:45:12;100266.26;;;13.02;68.17
43281;BME280;62175;49.416;8.690;2023-11-19T04:47:39;100264.65;;;13.09;68.32
43281;BME280;62175;49.416;8.690;2023-11-19T04:50:07;100264.48;;;12.82;67.92
43281;BME280;62175;49.416;8.690;2023-11-19T04:52:33;100264.54;;;12.87;68.19
43281;BME280;62175;49.416;8.690;2023-11-19T04:55:01;100269.51;;;13.00;67.48
43281;BME280;62175;49.416;8.690;2023-11-19T04:57:28;100265.14;;;13.02;67.92
43281;BME280;62175;49.416;8.690;2023-11-19T04:59:55;100251.75;;;12.86;68.27
43281;BME280;62175;49.416;8.690;2023-11-19T05:02:22;100249.46;;;12.93;67.70
43281;BME280;62175;49.416;8.690;2023-11-19T05:04:49;100251.28;;;12.87;68.37
43281;BME280;62175;49.416;8.690;2023-11-19T05:07:16;100253.46;;;12.73;68.94
43281;BME280;62175;49.416;8.690;2023-11-19T05:09:44;100253.10;;;12.75;68.66
43281;BME280;62175;49.416;8.690;2023-11-19T05:12:11;100255.59;;;13.01;68.40
43281;BME280;62175;49.416;8.690;2023-11-19T05:14:38;100257.52;;;12.98;67.91
43281;BME280;62175;49.416;8.690;2023-11-19T05:17:05;100261.67;;;12.87;68.66
43281;BME280;62175;49.416;8.690;2023-11-19T05:19:33;100258.84;;;13.01;68.15
43281;BME280;62175;49.416;8.690;2023-11-19T05:22:00;100254.86;;;13.08;67.94
43281;BME280;62175;49.416;8.690;2023-11-19T05:24:27;100255.93;;;12.90;68.52
43281;BME280;62175;49.416;8.690;2023-11-19T05:26:54;100259.84;;;12.96;68.22
43281;BME280;62175;49.416;8.690;2023-11-19T05:29:21;100259.56;;;12.97;68.67
43281;BME280;62175;49.416;8.690;2023-11-19T05:31:49;100262.88;;;13.14;68.70
43281;BME280;62175;49.416;8.690;2023-11-19T05:34:16;100262.81;;;13.30;67.10
43281;BME280;62175;49.416;8.690;2023-11-19T05:36:43;100267.33;;;12.74;69.48
43281;BME280;62175;49.416;8.690;2023-11-19T05:39:10;100264.00;;;13.00;69.09
43281;BME280;62175;49.416;8.690;2023-11-19T05:41:37;100266.44;;;13.46;67.58
43281;BME280;62175;49.416;8.690;2023-11-19T05:44:04;100262.26;;;13.56;68.74
43281;BME280;62175;49.416;8.690;2023-11-19T05:46:32;100253.83;;;13.17;67.86
43281;BME280;62175;49.416;8.690;2023-11-19T05:48:59;100250.56;;;13.16;68.55
43281;BME280;62175;49.416;8.690;2023-11-19T05:51:26;100248.03;;;13.20;68.52
43281;BME280;62175;49.416;8.690;2023-11-19T05:53:53;100248.80;;;13.27;67.77
43281;BME280;62175;49.416;8.690;2023-11-19T05:56:20;100246.56;;;13.24;68.49
43281;BME280;62175;49.416;8.690;2023-11-19T05:58:47;100246.44;;;13.59;68.38
43281;BME280;62175;49.416;8.690;2023-11-19T06:01:15;100242.43;;;13.15;68.80
43281;BME280;62175;49.416;8.690;2023-11-19T06:03:42;100239.80;;;13.32;67.75
43281;BME280;62175;49.416;8.690;2023-11-19T06:06:09;100236.29;;;13.18;68.67
43281;BME280;62175;49.416;8.690;2023-11-19T06:08:36;100231.83;;;13.19;68.60
43281;BME280;62175;49.416;8.690;2023-11-19T06:11:04;100233.29;;;13.21;68.81
43281;BME280;62175;49.416;8.690;2023-11-19T06:13:31;100228.70;;;13.05;69.20
43281;BME280;62175;49.416;8.690;2023-11-19T06:15:58;100231.11;;;13.17;68.99
43281;BME280;62175;49.416;8.690;2023-11-19T06:18:26;100239.83;;;13.19;69.31
43281;BME280;62175;49.416;8.690;2023-11-19T06:20:53;100242.42;;;13.25;68.40
43281;BME280;62175;49.416;8.690;2023-11-19T06:23:20;100245.45;;;13.36;67.99
43281;BME280;62175;49.416;8.690;2023-11-19T06:25:47;100252.00;;;13.27;68.17
43281;BME280;62175;49.416;8.690;2023-11-19T06:28:14;100253.58;;;13.34;68.94
43281;BME280;62175;49.416;8.690;2023-11-19T06:30:43;100254.49;;;13.43;67.37
43281;BME280;62175;49.416;8.690;2023-11-19T06:33:12;100249.97;;;13.08;68.68
43281;BME280;62175;49.416;8.690;2023-11-19T06:35:39;100251.95;;;13.27;69.04
43281;BME280;62175;49.416;8.690;2023-11-19T06:38:06;100256.51;;;13.23;68.77
43281;BME280;62175;49.416;8.690;2023-11-19T06:40:34;100255.06;;;13.31;68.22
43281;BME280;62175;49.416;8.690;2023-11-19T06:43:01;100253.32;;;13.01;69.45
43281;BME280;62175;49.416;8.690;2023-11-19T06:45:28;100254.29;;;13.34;68.86
43281;BME280;62175;49.416;8.690;2023-11-19T06:47:55;100251.37;;;13.35;68.92
43281;BME280;62175;49.416;8.690;2023-11-19T06:50:22;100249.52;;;13.35;69.26
43281;BME280;62175;49.416;8.690;2023-11-19T06:52:49;100248.67;;;13.23;70.00
43281;BME280;62175;49.416;8.690;2023-11-19T06:55:16;100256.78;;;13.57;68.81
43281;BME280;62175;49.416;8.690;2023-11-19T06:57:44;100264.66;;;13.22;69.32
43281;BME280;62175;49.416;8.690;2023-11-19T07:00:12;100273.14;;;13.21;69.81
43281;BME280;62175;49.416;8.690;2023-11-19T07:02:39;100280.13;;;13.23;69.15
43281;BME280;62175;49.416;8.690;2023-11-19T07:05:06;100284.62;;;13.38;68.73
43281;BME280;62175;49.416;8.690;2023-11-19T07:07:34;100290.91;;;13.34;68.94
43281;BME280;62175;49.416;8.690;2023-11-19T07:10:01;100286.57;;;13.30;69.88
43281;BME280;62175;49.416;8.690;2023-11-19T07:12:28;100287.48;;;13.24;69.55
43281;BME280;62175;49.416;8.690;2023-11-19T07:14:55;100287.21;;;13.33;69.74
43281;BME280;62175;49.416;8.690;2023-11-19T07:17:22;100288.84;;;13.52;68.36
43281;BME280;62175;49.416;8.690;2023-11-19T07:19:50;100287.03;;;13.29;68.25
43281;BME280;62175;49.416;8.690;2023-11-19T07:22:17;100285.74;;;13.23;69.72
43281;BME280;62175;49.416;8.690;2023-11-19T07:24:44;100290.36;;;13.60;67.85
43281;BME280;62175;49.416;8.690;2023-11-19T07:27:11;100291.64;;;13.48;68.65
43281;BME280;62175;49.416;8.690;2023-11-19T07:29:38;100295.93;;;13.56;68.84
43281;BME280;62175;49.416;8.690;2023-11-19T07:32:05;100294.78;;;13.65;68.03
43281;BME280;62175;49.416;8.690;2023-11-19T07:34:32;100300.00;;;13.63;67.69
43281;BME280;62175;49.416;8.690;2023-11-19T07:37:00;100297.55;;;13.59;68.72
43281;BME280;62175;49.416;8.690;2023-11-19T07:39:27;100298.64;;;13.41;69.63
43281;BME280;62175;49.416;8.690;2023-11-19T07:41:54;100307.79;;;13.70;68.81
43281;BME280;62175;49.416;8.690;2023-11-19T07:44:21;100312.02;;;13.74;67.89
43281;BME280;62175;49.416;8.690;2023-11-19T07:46:49;100308.15;;;13.49;68.01
43281;BME280;62175;49.416;8.690;2023-11-19T07:49:16;100310.96;;;13.33;70.61
43281;BME280;62175;49.416;8.690;2023-11-19T07:51:43;100309.99;;;13.46;68.35
43281;BME280;62175;49.416;8.690;2023-11-19T07:54:10;100305.32;;;13.05;70.44
43281;BME280;62175;49.416;8.690;2023-11-19T07:56:38;100308.88;;;13.27;70.28
43281;BME280;62175;49.416;8.690;2023-11-19T07:59:04;100313.00;;;13.61;69.63
43281;BME280;62175;49.416;8.690;2023-11-19T08:01:31;100313.97;;;13.50;70.73
43281;BME280;62175;49.416;8.690;2023-11-19T08:03:59;100312.84;;;13.52;70.14
43281;BME280;62175;49.416;8.690;2023-11-19T08:06:26;100309.26;;;13.46;69.37
43281;BME280;62175;49.416;8.690;2023-11-19T08:08:53;100309.92;;;13.45;69.07
43281;BME280;62175;49.416;8.690;2023-11-19T08:11:20;100309.06;;;13.67;70.31
43281;BME280;62175;49.416;8.690;2023-11-19T08:13:47;100307.71;;;13.77;69.07
43281;BME280;62175;49.416;8.690;2023-11-19T08:16:14;100305.85;;;13.69;69.91
43281;BME280;62175;49.416;8.690;2023-11-19T08:18:43;100309.01;;;13.68;70.36
43281;BME280;62175;49.416;8.690;2023-11-19T08:21:10;100316.86;;;13.75;70.07
43281;BME280;62175;49.416;8.690;2023-11-19T08:23:37;100320.58;;;13.57;70.47
43281;BME280;62175;49.416;8.690;2023-11-19T08:26:05;100323.94;;;13.34;70.52
43281;BME280;62175;49.416;8.690;2023-11-19T08:28:33;100324.60;;;13.52;69.05
43281;BME280;62175;49.416;8.690;2023-11-19T08:31:00;100325.26;;;13.56;69.70
43281;BME280;62175;49.416;8.690;2023-11-19T08:33:27;100327.92;;;13.30;71.51
43281;BME280;62175;49.416;8.690;2023-11-19T08:35:54;100328.96;;;13.65;70.86
43281;BME280;62175;49.416;8.690;2023-11-19T08:38:21;100322.59;;;13.46;69.62
43281;BME280;62175;49.416;8.690;2023-11-19T08:40:48;100322.61;;;13.53;70.77
43281;BME280;62175;49.416;8.690;2023-11-19T08:43:15;100322.30;;;13.73;69.73
43281;BME280;62175;49.416;8.690;2023-11-19T08:45:43;100324.69;;;13.63;71.69
43281;BME280;62175;49.416;8.690;2023-11-19T08:48:10;100324.61;;;13.66;70.56
43281;BME280;62175;49.416;8.690;2023-11-19T08:50:37;100326.92;;;13.49;70.26
43281;BME280;62175;49.416;8.690;2023-11-19T08:53:04;100325.28;;;13.50;70.37
43281;BME280;62175;49.416;8.690;2023-11-19T08:55:31;100328.08;;;13.78;70.28
43281;BME280;62175;49.416;8.690;2023-11-19T08:57:59;100330.69;;;13.86;69.65
43281;BME280;62175;49.416;8.690;2023-11-19T09:00:25;100326.16;;;13.28;71.56
43281;BME280;62175;49.416;8.690;2023-11-19T09:02:53;100331.63;;;13.83;70.58
43281;BME280;62175;49.416;8.690;2023-11-19T09:05:20;100333.16;;;13.79;70.40
43281;BME280;62175;49.416;8.690;2023-11-19T09:07:47;100330.33;;;13.60;71.37
43281;BME280;62175;49.416;8.690;2023-11-19T09:10:14;100337.03;;;13.61;69.97
43281;BME280;62175;49.416;8.690;2023-11-19T09:12:41;100342.05;;;13.93;69.14
43281;BME280;62175;49.416;8.690;2023-11-19T09:15:09;100346.22;;;13.84;70.24
43281;BME280;62175;49.416;8.690;2023-11-19T09:17:36;100336.62;;;13.84;69.41
43281;BME280;62175;49.416;8.690;2023-11-19T09:20:04;100337.74;;;14.01;69.27
43281;BME280;62175;49.416;8.690;2023-11-19T09:22:31;100336.19;;;13.52;69.94
43281;BME280;62175;49.416;8.690;2023-11-19T09:24:58;100335.92;;;13.85;71.51
43281;BME280;62175;49.416;8.690;2023-11-19T09:27:26;100334.48;;;13.97;69.97
43281;BME280;62175;49.416;8.690;2023-11-19T09:29:53;100338.32;;;13.89;70.11
43281;BME280;62175;49.416;8.690;2023-11-19T09:32:21;100341.21;;;13.90;69.51
43281;BME280;62175;49.416;8.690;2023-11-19T09:34:48;100345.55;;;13.78;71.97
43281;BME280;62175;49.416;8.690;2023-11-19T09:37:15;100340.54;;;13.84;71.71
43281;BME280;62175;49.416;8.690;2023-11-19T09:39:42;100334.19;;;13.53;71.57
43281;BME280;62175;49.416;8.690;2023-11-19T09:42:09;100334.62;;;13.99;70.94
43281;BME280;62175;49.416;8.690;2023-11-19T09:44:37;100332.99;;;13.99;70.97
43281;BME280;62175;49.416;8.690;2023-11-19T09:47:06;100337.26;;;13.65;70.85
43281;BME280;62175;49.416;8.690;2023-11-19T09:49:35;100334.48;;;13.39;72.74
43281;BME280;62175;49.416;8.690;2023-11-19T09:52:04;100332.33;;;13.50;71.85
43281;BME280;62175;49.416;8.690;2023-11-19T09:54:31;100334.74;;;13.97;70.85
43281;BME280;62175;49.416;8.690;2023-11-19T09:56:58;100335.71;;;13.90;71.16
43281;BME280;62175;49.416;8.690;2023-11-19T09:59:26;100334.10;;;13.64;71.05
43281;BME280;62175;49.416;8.690;2023-11-19T10:01:53;100339.18;;;14.02;70.59
43281;BME280;62175;49.416;8.690;2023-11-19T10:04:20;100332.31;;;13.62;69.75
43281;BME280;62175;49.416;8.690;2023-11-19T10:06:48;100333.61;;;13.88;69.26
43281;BME280;62175;49.416;8.690;2023-11-19T10:09:15;100333.23;;;14.34;69.44
43281;BME280;62175;49.416;8.690;2023-11-19T10:11:42;100331.54;;;14.01;69.36
43281;BME280;62175;49.416;8.690;2023-11-19T10:14:10;100329.10;;;14.04;69.24
43281;BME280;62175;49.416;8.690;2023-11-19T10:16:38;100331.10;;;14.06;69.53
43281;BME280;62175;49.416;8.690;2023-11-19T10:19:05;100335.24;;;14.03;70.39
43281;BME280;62175;49.416;8.690;2023-11-19T10:21:33;100337.02;;;13.99;69.01
43281;BME280;62175;49.416;8.690;2023-11-19T10:24:00;100335.75;;;14.16;68.93
43281;BME280;62175;49.416;8.690;2023-11-19T10:26:28;100326.70;;;14.20;68.99
43281;BME280;62175;49.416;8.690;2023-11-19T10:28:56;100324.10;;;14.11;69.72
43281;BME280;62175;49.416;8.690;2023-11-19T10:31:23;100319.72;;;14.11;69.94
43281;BME280;62175;49.416;8.690;2023-11-19T10:33:50;100314.64;;;13.77;71.49
43281;BME280;62175;49.416;8.690;2023-11-19T10:36:17;100302.69;;;13.96;69.79
43281;BME280;62175;49.416;8.690;2023-11-19T10:38:52;100302.19;;;14.35;69.49
43281;BME280;62175;49.416;8.690;2023-11-19T10:41:32;100299.00;;;14.09;70.17
43281;BME280;62175;49.416;8.690;2023-11-19T10:44:00;100294.46;;;14.31;69.91
43281;BME280;62175;49.416;8.690;2023-11-19T10:46:37;100293.87;;;14.27;70.19
43281;BME280;62175;49.416;8.690;2023-11-19T10:49:04;100284.08;;;14.11;70.08
43281;BME280;62175;49.416;8.690;2023-11-19T10:51:31;100294.57;;;14.14;69.75
43281;BME280;62175;49.416;8.690;2023-11-19T10:54:02;100287.92;;;14.15;69.66
43281;BME280;62175;49.416;8.690;2023-11-19T10:56:30;100290.49;;;14.45;69.07
43281;BME280;62175;49.416;8.690;2023-11-19T10:58:59;100283.04;;;14.60;69.31
43281;BME280;62175;49.416;8.690;2023-11-19T11:01:32;100288.98;;;14.39;69.63
43281;BME280;62175;49.416;8.690;2023-11-19T11:04:02;100281.74;;;14.71;68.46
43281;BME280;62175;49.416;8.690;2023-11-19T11:06:30;100274.75;;;14.34;68.33
43281;BME280;62175;49.416;8.690;2023-11-19T11:08:57;100273.98;;;14.32;68.52
43281;BME280;62175;49.416;8.690;2023-11-19T11:11:24;100277.14;;;14.49;68.65
43281;BME280;62175;49.416;8.690;2023-11-19T11:13:53;100274.86;;;14.36;68.82
43281;BME280;62175;49.416;8.690;2023-11-19T11:16:22;100272.80;;;14.30;68.45
43281;BME280;62175;49.416;8.690;2023-11-19T11:18:51;100269.11;;;14.63;67.81
43281;BME280;62175;49.416;8.690;2023-11-19T11:21:23;100275.84;;;14.81;67.97
43281;BME280;62175;49.416;8.690;2023-11-19T11:24:16;100276.81;;;14.77;67.88
43281;BME280;62175;49.416;8.690;2023-11-19T11:26:59;100278.41;;;14.44;68.03
43281;BME280;62175;49.416;8.690;2023-11-19T11:29:37;100275.67;;;14.40;68.98
43281;BME280;62175;49.416;8.690;2023-11-19T11:32:16;100276.56;;;14.41;68.72
43281;BME280;62175;49.416;8.690;2023-11-19T11:35:02;100275.78;;;14.27;69.05
43281;BME280;62175;49.416;8.690;2023-11-19T11:37:39;100267.59;;;14.55;68.16
43281;BME280;62175;49.416;8.690;2023-11-19T11:40:14;100263.31;;;14.75;68.19
43281;BME280;62175;49.416;8.690;2023-11-19T11:42:40;100255.82;;;14.52;68.08
43281;BME280;62175;49.416;8.690;2023-11-19T11:45:09;100250.17;;;14.59;67.59
43281;BME280;62175;49.416;8.690;2023-11-19T11:48:10;100244.85;;;14.53;67.50
43281;BME280;62175;49.416;8.690;2023-11-19T11:50:48;100239.78;;;14.88;66.90
43281;BME280;62175;49.416;8.690;2023-11-19T11:53:16;100240.84;;;14.64;67.11
43281;BME280;62175;49.416;8.690;2023-11-19T11:55:59;100239.31;;;14.58;67.44
43281;BME280;62175;49.416;8.690;2023-11-19T11:58:30;100236.65;;;14.83;67.93
43281;BME280;62175;49.416;8.690;2023-11-19T12:00:58;100241.73;;;14.78;67.31
43281;BME280;62175;49.416;8.690;2023-11-19T12:03:28;100236.33;;;14.77;66.06
43281;BME280;62175;49.416;8.690;2023-11-19T12:05:56;100242.58;;;15.15;64.91
43281;BME280;62175;49.416;8.690;2023-11-19T12:08:27;100241.55;;;15.18;64.92
43281;BME280;62175;49.416;8.690;2023-11-19T12:10:55;100237.81;;;15.16;63.98
43281;BME280;62175;49.416;8.690;2023-11-19T12:13:24;100234.53;;;15.20;64.08
43281;BME280;62175;49.416;8.690;2023-11-19T12:16:11;100237.63;;;15.39;62.54
43281;BME280;62175;49.416;8.690;2023-11-19T12:18:39;100234.74;;;14.96;64.23
43281;BME280;62175;49.416;8.690;2023-11-19T12:21:06;100232.41;;;15.22;63.43
43281;BME280;62175;49.416;8.690;2023-11-19T12:23:34;100228.87;;;14.76;63.14
43281;BME280;62175;49.416;8.690;2023-11-19T12:26:00;100233.95;;;15.25;62.78
43281;BME280;62175;49.416;8.690;2023-11-19T12:28:27;100243.61;;;14.48;64.08
43281;BME280;62175;49.416;8.690;2023-11-19T12:31:07;100230.82;;;15.26;61.97
43281;BME280;62175;49.416;8.690;2023-11-19T12:33:35;100234.14;;;15.23;62.04
43281;BME280;62175;49.416;8.690;2023-11-19T12:36:03;100231.22;;;15.26;62.14
43281;BME280;62175;49.416;8.690;2023-11-19T12:38:31;100226.31;;;15.26;61.51
43281;BME280;62175;49.416;8.690;2023-11-19T12:41:06;100216.78;;;15.08;62.14
43281;BME280;62175;49.416;8.690;2023-11-19T12:43:33;100220.34;;;15.26;61.85
43281;BME280;62175;49.416;8.690;2023-11-19T12:46:00;100209.41;;;15.28;62.47
43281;BME280;62175;49.416;8.690;2023-11-19T12:48:27;100210.95;;;15.38;62.58
43281;BME280;62175;49.416;8.690;2023-11-19T12:50:55;100206.84;;;15.07;61.66
43281;BME280;62175;49.416;8.690;2023-11-19T12:53:22;100201.25;;;15.34;61.73
43281;BME280;62175;49.416;8.690;2023-11-19T12:55:50;100197.55;;;15.16;62.13